sensor_id;sensor_type;location;lat;lon;timestamp;P1;durP1;ratioP1;P2;durP2;ratioP2
39044;SDS011;52192;52.002;5.956;2023-07-28T00:01:33;1.38;;;1.13;;
39044;SDS011;52192;52.002;5.956;2023-07-28T00:03:59;1.75;;;1.08;;
39044;SDS011;52192;52.002;5.956;2023-07-28T00:06:25;1.45;;;1.13;;
39044;SDS011;52192;52.002;5.956;2023-07-28T00:08:50;0.73;;;0.73;;
39044;SDS011;52192;52.002;5.956;2023-07-28T00:11:16;0.93;;;0.90;;
39044;SDS011;52192;52.002;5.956;2023-07-28T00:13:42;2.50;;;1.48;;
39044;SDS011;52192;52.002;5.956;2023-07-28T00:16:08;2.47;;;1.88;;
39044;SDS011;52192;52.002;5.956;2023-07-28T00:18:35;1.98;;;1.27;;
39044;SDS011;52192;52.002;5.956;2023-07-28T00:21:01;1.73;;;1.25;;
39044;SDS011;52192;52.002;5.956;2023-07-28T00:23:27;1.85;;;1.30;;
39044;SDS011;52192;52.002;5.956;2023-07-28T00:25:53;1.60;;;1.25;;
39044;SDS011;52192;52.002;5.956;2023-07-28T00:28:19;3.00;;;1.65;;
39044;SDS011;52192;52.002;5.956;2023-07-28T00:30:48;2.40;;;1.70;;
39044;SDS011;52192;52.002;5.956;2023-07-28T00:33:15;2.10;;;1.15;;
39044;SDS011;52192;52.002;5.956;2023-07-28T00:35:40;1.67;;;1.00;;
39044;SDS011;52192;52.002;5.956;2023-07-28T00:38:06;1.30;;;1.10;;
39044;SDS011;52192;52.002;5.956;2023-07-28T00:40:32;4.47;;;1.83;;
39044;SDS011;52192;52.002;5.956;2023-07-28T00:42:57;1.73;;;1.60;;
39044;SDS011;52192;52.002;5.956;2023-07-28T00:45:23;2.28;;;1.20;;
39044;SDS011;52192;52.002;5.956;2023-07-28T00:47:50;3.03;;;1.75;;
39044;SDS011;52192;52.002;5.956;2023-07-28T00:50:16;1.92;;;1.33;;
39044;SDS011;52192;52.002;5.956;2023-07-28T00:52:43;2.08;;;1.27;;
39044;SDS011;52192;52.002;5.956;2023-07-28T00:55:09;4.43;;;1.35;;
39044;SDS011;52192;52.002;5.956;2023-07-28T00:57:35;2.58;;;1.45;;
39044;SDS011;52192;52.002;5.956;2023-07-28T01:00:00;1.92;;;1.38;;
39044;SDS011;52192;52.002;5.956;2023-07-28T01:02:26;1.38;;;0.95;;
39044;SDS011;52192;52.002;5.956;2023-07-28T01:04:52;2.63;;;1.52;;
39044;SDS011;52192;52.002;5.956;2023-07-28T01:07:29;2.83;;;1.77;;
39044;SDS011;52192;52.002;5.956;2023-07-28T01:13:03;2.60;;;1.73;;
39044;SDS011;52192;52.002;5.956;2023-07-28T01:15:29;1.67;;;1.08;;
39044;SDS011;52192;52.002;5.956;2023-07-28T01:17:54;2.33;;;1.60;;
39044;SDS011;52192;52.002;5.956;2023-07-28T01:20:21;1.33;;;1.05;;
39044;SDS011;52192;52.002;5.956;2023-07-28T01:23:18;3.58;;;1.70;;
39044;SDS011;52192;52.002;5.956;2023-07-28T01:25:48;2.97;;;2.08;;
39044;SDS011;52192;52.002;5.956;2023-07-28T01:28:20;2.35;;;1.83;;
39044;SDS011;52192;52.002;5.956;2023-07-28T01:30:47;3.33;;;1.83;;
39044;SDS011;52192;52.002;5.956;2023-07-28T01:33:13;1.65;;;1.55;;
39044;SDS011;52192;52.002;5.956;2023-07-28T01:35:38;2.30;;;1.30;;
39044;SDS011;52192;52.002;5.956;2023-07-28T01:38:04;3.33;;;1.83;;
39044;SDS011;52192;52.002;5.956;2023-07-28T01:40:30;1.90;;;1.50;;
39044;SDS011;52192;52.002;5.956;2023-07-28T01:42:56;1.55;;;1.27;;
39044;SDS011;52192;52.002;5.956;2023-07-28T01:45:22;2.50;;;2.00;;
39044;SDS011;52192;52.002;5.956;2023-07-28T01:47:47;2.50;;;1.80;;
39044;SDS011;52192;52.002;5.956;2023-07-28T01:50:13;3.47;;;2.20;;
39044;SDS011;52192;52.002;5.956;2023-07-28T01:52:39;2.80;;;2.03;;
39044;SDS011;52192;52.002;5.956;2023-07-28T01:55:04;2.80;;;2.10;;
39044;SDS011;52192;52.002;5.956;2023-07-28T01:57:34;4.25;;;1.83;;
39044;SDS011;52192;52.002;5.956;2023-07-28T02:00:00;1.75;;;1.27;;
39044;SDS011;52192;52.002;5.956;2023-07-28T02:02:28;3.80;;;2.22;;
39044;SDS011;52192;52.002;5.956;2023-07-28T02:04:54;1.77;;;1.67;;
39044;SDS011;52192;52.002;5.956;2023-07-28T02:07:19;2.55;;;1.55;;
39044;SDS011;52192;52.002;5.956;2023-07-28T02:09:45;2.78;;;1.88;;
39044;SDS011;52192;52.002;5.956;2023-07-28T02:12:11;2.53;;;1.58;;
39044;SDS011;52192;52.002;5.956;2023-07-28T02:14:36;3.15;;;2.08;;
39044;SDS011;52192;52.002;5.956;2023-07-28T02:17:02;3.03;;;1.80;;
39044;SDS011;52192;52.002;5.956;2023-07-28T02:19:28;2.92;;;2.00;;
39044;SDS011;52192;52.002;5.956;2023-07-28T02:21:53;2.53;;;1.60;;
39044;SDS011;52192;52.002;5.956;2023-07-28T02:24:19;2.70;;;1.92;;
39044;SDS011;52192;52.002;5.956;2023-07-28T02:26:45;4.10;;;2.38;;
39044;SDS011;52192;52.002;5.956;2023-07-28T02:29:10;5.60;;;2.47;;
39044;SDS011;52192;52.002;5.956;2023-07-28T02:31:36;6.75;;;3.08;;
39044;SDS011;52192;52.002;5.956;2023-07-28T02:34:01;2.65;;;1.55;;
39044;SDS011;52192;52.002;5.956;2023-07-28T02:36:27;4.47;;;2.13;;
39044;SDS011;52192;52.002;5.956;2023-07-28T02:38:53;4.18;;;2.38;;
39044;SDS011;52192;52.002;5.956;2023-07-28T02:41:18;1.88;;;1.55;;
39044;SDS011;52192;52.002;5.956;2023-07-28T02:43:44;3.45;;;2.03;;
39044;SDS011;52192;52.002;5.956;2023-07-28T02:46:09;3.85;;;2.13;;
39044;SDS011;52192;52.002;5.956;2023-07-28T02:48:35;6.40;;;2.92;;
39044;SDS011;52192;52.002;5.956;2023-07-28T02:51:01;5.13;;;2.65;;
39044;SDS011;52192;52.002;5.956;2023-07-28T02:53:26;8.25;;;3.47;;
39044;SDS011;52192;52.002;5.956;2023-07-28T02:55:52;3.70;;;2.45;;
39044;SDS011;52192;52.002;5.956;2023-07-28T02:58:19;6.50;;;3.42;;
39044;SDS011;52192;52.002;5.956;2023-07-28T03:00:44;3.85;;;2.25;;
39044;SDS011;52192;52.002;5.956;2023-07-28T03:03:11;7.60;;;3.63;;
39044;SDS011;52192;52.002;5.956;2023-07-28T03:05:37;4.85;;;2.70;;
39044;SDS011;52192;52.002;5.956;2023-07-28T03:08:04;7.28;;;2.92;;
39044;SDS011;52192;52.002;5.956;2023-07-28T03:10:30;6.40;;;1.92;;
39044;SDS011;52192;52.002;5.956;2023-07-28T03:12:56;5.53;;;3.38;;
39044;SDS011;52192;52.002;5.956;2023-07-28T03:15:22;6.30;;;2.80;;
39044;SDS011;52192;52.002;5.956;2023-07-28T03:17:48;7.75;;;4.68;;
39044;SDS011;52192;52.002;5.956;2023-07-28T03:20:15;4.75;;;2.88;;
39044;SDS011;52192;52.002;5.956;2023-07-28T03:22:41;5.72;;;3.47;;
39044;SDS011;52192;52.002;5.956;2023-07-28T03:25:06;3.63;;;2.53;;
39044;SDS011;52192;52.002;5.956;2023-07-28T03:27:33;4.55;;;2.60;;
39044;SDS011;52192;52.002;5.956;2023-07-28T03:29:58;5.50;;;2.60;;
39044;SDS011;52192;52.002;5.956;2023-07-28T03:32:24;5.03;;;2.20;;
39044;SDS011;52192;52.002;5.956;2023-07-28T03:34:50;8.02;;;4.45;;
39044;SDS011;52192;52.002;5.956;2023-07-28T03:37:16;6.35;;;3.35;;
39044;SDS011;52192;52.002;5.956;2023-07-28T03:39:41;3.88;;;2.55;;
39044;SDS011;52192;52.002;5.956;2023-07-28T03:42:07;5.38;;;2.97;;
39044;SDS011;52192;52.002;5.956;2023-07-28T03:44:33;5.15;;;3.42;;
39044;SDS011;52192;52.002;5.956;2023-07-28T03:46:59;10.27;;;4.53;;
39044;SDS011;52192;52.002;5.956;2023-07-28T03:49:25;9.25;;;3.97;;
39044;SDS011;52192;52.002;5.956;2023-07-28T03:51:50;7.10;;;3.40;;
39044;SDS011;52192;52.002;5.956;2023-07-28T03:54:16;5.70;;;3.10;;
39044;SDS011;52192;52.002;5.956;2023-07-28T03:56:41;6.68;;;3.03;;
39044;SDS011;52192;52.002;5.956;2023-07-28T03:59:07;4.82;;;2.83;;
39044;SDS011;52192;52.002;5.956;2023-07-28T04:01:33;4.20;;;2.80;;
39044;SDS011;52192;52.002;5.956;2023-07-28T04:03:58;6.43;;;2.53;;
39044;SDS011;52192;52.002;5.956;2023-07-28T04:09:07;7.20;;;3.63;;
39044;SDS011;52192;52.002;5.956;2023-07-28T04:11:33;8.35;;;3.53;;
39044;SDS011;52192;52.002;5.956;2023-07-28T04:13:59;6.82;;;3.30;;
39044;SDS011;52192;52.002;5.956;2023-07-28T04:16:24;6.05;;;3.90;;
39044;SDS011;52192;52.002;5.956;2023-07-28T04:18:50;7.78;;;3.53;;
39044;SDS011;52192;52.002;5.956;2023-07-28T04:21:16;10.10;;;4.43;;
39044;SDS011;52192;52.002;5.956;2023-07-28T04:23:41;11.18;;;4.45;;
39044;SDS011;52192;52.002;5.956;2023-07-28T04:26:08;7.13;;;4.22;;
39044;SDS011;52192;52.002;5.956;2023-07-28T04:28:34;5.57;;;3.72;;
39044;SDS011;52192;52.002;5.956;2023-07-28T04:31:00;5.78;;;3.17;;
39044;SDS011;52192;52.002;5.956;2023-07-28T04:33:25;5.43;;;3.35;;
39044;SDS011;52192;52.002;5.956;2023-07-28T04:35:51;4.57;;;2.25;;
39044;SDS011;52192;52.002;5.956;2023-07-28T04:38:17;5.85;;;2.75;;
39044;SDS011;52192;52.002;5.956;2023-07-28T04:40:43;8.48;;;3.05;;
39044;SDS011;52192;52.002;5.956;2023-07-28T04:43:09;5.47;;;3.67;;
39044;SDS011;52192;52.002;5.956;2023-07-28T04:45:35;10.10;;;3.10;;
39044;SDS011;52192;52.002;5.956;2023-07-28T04:48:01;11.25;;;5.13;;
39044;SDS011;52192;52.002;5.956;2023-07-28T04:50:27;5.97;;;3.50;;
39044;SDS011;52192;52.002;5.956;2023-07-28T04:52:53;8.38;;;3.88;;
39044;SDS011;52192;52.002;5.956;2023-07-28T04:55:20;5.35;;;3.55;;
39044;SDS011;52192;52.002;5.956;2023-07-28T04:57:45;11.02;;;5.05;;
39044;SDS011;52192;52.002;5.956;2023-07-28T05:00:11;7.88;;;3.72;;
39044;SDS011;52192;52.002;5.956;2023-07-28T05:02:37;5.07;;;2.47;;
39044;SDS011;52192;52.002;5.956;2023-07-28T05:05:03;3.80;;;2.20;;
39044;SDS011;52192;52.002;5.956;2023-07-28T05:07:29;8.35;;;3.90;;
39044;SDS011;52192;52.002;5.956;2023-07-28T05:09:55;6.03;;;4.15;;
39044;SDS011;52192;52.002;5.956;2023-07-28T05:12:20;5.95;;;3.25;;
39044;SDS011;52192;52.002;5.956;2023-07-28T05:14:46;4.72;;;3.42;;
39044;SDS011;52192;52.002;5.956;2023-07-28T05:17:12;8.40;;;4.63;;
39044;SDS011;52192;52.002;5.956;2023-07-28T05:19:38;3.97;;;3.00;;
39044;SDS011;52192;52.002;5.956;2023-07-28T05:22:03;6.30;;;3.88;;
39044;SDS011;52192;52.002;5.956;2023-07-28T05:24:31;8.27;;;4.65;;
39044;SDS011;52192;52.002;5.956;2023-07-28T05:26:59;6.70;;;3.40;;
39044;SDS011;52192;52.002;5.956;2023-07-28T05:29:25;5.13;;;2.97;;
39044;SDS011;52192;52.002;5.956;2023-07-28T05:31:51;5.93;;;3.63;;
39044;SDS011;52192;52.002;5.956;2023-07-28T05:34:16;8.45;;;4.40;;
39044;SDS011;52192;52.002;5.956;2023-07-28T05:36:42;10.80;;;5.80;;
39044;SDS011;52192;52.002;5.956;2023-07-28T05:39:09;6.97;;;4.13;;
39044;SDS011;52192;52.002;5.956;2023-07-28T05:41:36;7.95;;;3.95;;
39044;SDS011;52192;52.002;5.956;2023-07-28T05:44:02;8.57;;;4.32;;
39044;SDS011;52192;52.002;5.956;2023-07-28T05:46:28;7.15;;;4.00;;
39044;SDS011;52192;52.002;5.956;2023-07-28T05:48:55;5.28;;;3.05;;
39044;SDS011;52192;52.002;5.956;2023-07-28T05:51:21;8.48;;;4.45;;
39044;SDS011;52192;52.002;5.956;2023-07-28T05:53:48;10.75;;;4.82;;
39044;SDS011;52192;52.002;5.956;2023-07-28T05:56:14;12.68;;;6.43;;
39044;SDS011;52192;52.002;5.956;2023-07-28T05:58:40;8.60;;;4.70;;
39044;SDS011;52192;52.002;5.956;2023-07-28T06:01:06;10.20;;;5.43;;
39044;SDS011;52192;52.002;5.956;2023-07-28T06:03:31;9.95;;;3.88;;
39044;SDS011;52192;52.002;5.956;2023-07-28T06:05:57;9.45;;;4.50;;
39044;SDS011;52192;52.002;5.956;2023-07-28T06:08:23;8.50;;;4.38;;
39044;SDS011;52192;52.002;5.956;2023-07-28T06:10:48;6.70;;;3.60;;
39044;SDS011;52192;52.002;5.956;2023-07-28T06:13:14;9.05;;;3.70;;
39044;SDS011;52192;52.002;5.956;2023-07-28T06:15:41;5.72;;;4.05;;
39044;SDS011;52192;52.002;5.956;2023-07-28T06:18:07;7.05;;;4.53;;
39044;SDS011;52192;52.002;5.956;2023-07-28T06:20:32;6.65;;;3.15;;
39044;SDS011;52192;52.002;5.956;2023-07-28T06:22:59;5.78;;;3.33;;
39044;SDS011;52192;52.002;5.956;2023-07-28T06:25:25;5.47;;;3.15;;
39044;SDS011;52192;52.002;5.956;2023-07-28T06:27:51;3.53;;;2.42;;
39044;SDS011;52192;52.002;5.956;2023-07-28T06:30:17;4.50;;;2.80;;
39044;SDS011;52192;52.002;5.956;2023-07-28T06:32:42;6.40;;;2.20;;
39044;SDS011;52192;52.002;5.956;2023-07-28T06:35:08;5.80;;;2.92;;
39044;SDS011;52192;52.002;5.956;2023-07-28T06:37:34;6.55;;;3.90;;
39044;SDS011;52192;52.002;5.956;2023-07-28T06:40:06;7.35;;;3.97;;
39044;SDS011;52192;52.002;5.956;2023-07-28T06:42:34;7.78;;;2.65;;
39044;SDS011;52192;52.002;5.956;2023-07-28T06:45:01;4.75;;;3.22;;
39044;SDS011;52192;52.002;5.956;2023-07-28T06:47:30;5.13;;;2.40;;
39044;SDS011;52192;52.002;5.956;2023-07-28T06:49:56;5.78;;;3.00;;
39044;SDS011;52192;52.002;5.956;2023-07-28T06:52:21;4.90;;;2.45;;
39044;SDS011;52192;52.002;5.956;2023-07-28T06:54:47;4.78;;;3.00;;
39044;SDS011;52192;52.002;5.956;2023-07-28T06:57:14;4.70;;;3.55;;
39044;SDS011;52192;52.002;5.956;2023-07-28T06:59:41;5.15;;;3.42;;
39044;SDS011;52192;52.002;5.956;2023-07-28T07:02:07;4.00;;;2.72;;
39044;SDS011;52192;52.002;5.956;2023-07-28T07:04:34;6.40;;;3.13;;
39044;SDS011;52192;52.002;5.956;2023-07-28T07:06:59;4.82;;;2.88;;
39044;SDS011;52192;52.002;5.956;2023-07-28T07:09:25;9.68;;;4.82;;
39044;SDS011;52192;52.002;5.956;2023-07-28T07:11:51;5.65;;;3.58;;
39044;SDS011;52192;52.002;5.956;2023-07-28T07:14:16;6.10;;;3.55;;
39044;SDS011;52192;52.002;5.956;2023-07-28T07:16:42;11.93;;;5.10;;
39044;SDS011;52192;52.002;5.956;2023-07-28T07:19:08;4.68;;;3.55;;
39044;SDS011;52192;52.002;5.956;2023-07-28T07:21:34;8.25;;;4.45;;
39044;SDS011;52192;52.002;5.956;2023-07-28T07:24:00;11.57;;;4.28;;
39044;SDS011;52192;52.002;5.956;2023-07-28T07:26:27;8.48;;;4.05;;
39044;SDS011;52192;52.002;5.956;2023-07-28T07:28:53;6.88;;;3.28;;
39044;SDS011;52192;52.002;5.956;2023-07-28T07:31:18;10.55;;;4.53;;
39044;SDS011;52192;52.002;5.956;2023-07-28T07:33:44;4.07;;;2.63;;
39044;SDS011;52192;52.002;5.956;2023-07-28T07:36:14;4.38;;;2.95;;
39044;SDS011;52192;52.002;5.956;2023-07-28T07:38:41;6.93;;;3.17;;
39044;SDS011;52192;52.002;5.956;2023-07-28T07:41:07;6.95;;;3.55;;
39044;SDS011;52192;52.002;5.956;2023-07-28T07:43:35;6.45;;;3.38;;
39044;SDS011;52192;52.002;5.956;2023-07-28T07:46:01;4.90;;;3.65;;
39044;SDS011;52192;52.002;5.956;2023-07-28T07:48:27;4.05;;;3.50;;
39044;SDS011;52192;52.002;5.956;2023-07-28T07:50:53;5.22;;;3.20;;
39044;SDS011;52192;52.002;5.956;2023-07-28T07:53:18;5.10;;;3.15;;
39044;SDS011;52192;52.002;5.956;2023-07-28T07:55:44;9.57;;;3.92;;
39044;SDS011;52192;52.002;5.956;2023-07-28T07:58:09;5.15;;;2.80;;
39044;SDS011;52192;52.002;5.956;2023-07-28T08:00:38;4.18;;;2.85;;
39044;SDS011;52192;52.002;5.956;2023-07-28T08:03:04;5.72;;;2.20;;
39044;SDS011;52192;52.002;5.956;2023-07-28T08:05:30;6.05;;;2.55;;
39044;SDS011;52192;52.002;5.956;2023-07-28T08:07:56;6.07;;;3.60;;
39044;SDS011;52192;52.002;5.956;2023-07-28T08:10:22;5.22;;;2.63;;
39044;SDS011;52192;52.002;5.956;2023-07-28T08:12:48;4.50;;;3.15;;
39044;SDS011;52192;52.002;5.956;2023-07-28T08:15:14;4.97;;;2.92;;
39044;SDS011;52192;52.002;5.956;2023-07-28T08:17:40;6.28;;;3.35;;
39044;SDS011;52192;52.002;5.956;2023-07-28T08:20:06;3.78;;;2.13;;
39044;SDS011;52192;52.002;5.956;2023-07-28T08:22:32;3.78;;;2.50;;
39044;SDS011;52192;52.002;5.956;2023-07-28T08:24:58;7.32;;;2.92;;
39044;SDS011;52192;52.002;5.956;2023-07-28T08:27:24;4.60;;;3.10;;
39044;SDS011;52192;52.002;5.956;2023-07-28T08:29:49;4.68;;;2.53;;
39044;SDS011;52192;52.002;5.956;2023-07-28T08:32:15;4.10;;;2.53;;
39044;SDS011;52192;52.002;5.956;2023-07-28T08:34:41;5.03;;;3.15;;
39044;SDS011;52192;52.002;5.956;2023-07-28T08:37:06;9.15;;;3.63;;
39044;SDS011;52192;52.002;5.956;2023-07-28T08:39:33;5.13;;;2.75;;
39044;SDS011;52192;52.002;5.956;2023-07-28T08:42:02;5.82;;;2.55;;
39044;SDS011;52192;52.002;5.956;2023-07-28T08:44:31;2.70;;;2.13;;
39044;SDS011;52192;52.002;5.956;2023-07-28T08:46:59;6.75;;;3.83;;
39044;SDS011;52192;52.002;5.956;2023-07-28T08:49:25;7.95;;;3.65;;
39044;SDS011;52192;52.002;5.956;2023-07-28T08:51:52;6.47;;;3.97;;
39044;SDS011;52192;52.002;5.956;2023-07-28T08:54:22;6.03;;;2.97;;
39044;SDS011;52192;52.002;5.956;2023-07-28T08:56:48;9.95;;;4.60;;
39044;SDS011;52192;52.002;5.956;2023-07-28T08:59:23;7.28;;;3.67;;
39044;SDS011;52192;52.002;5.956;2023-07-28T09:01:52;3.83;;;2.80;;
39044;SDS011;52192;52.002;5.956;2023-07-28T09:04:19;5.93;;;3.20;;
39044;SDS011;52192;52.002;5.956;2023-07-28T09:06:48;5.30;;;2.70;;
39044;SDS011;52192;52.002;5.956;2023-07-28T09:09:14;5.13;;;2.65;;
39044;SDS011;52192;52.002;5.956;2023-07-28T09:11:59;4.15;;;2.65;;
39044;SDS011;52192;52.002;5.956;2023-07-28T09:14:25;3.85;;;2.80;;
39044;SDS011;52192;52.002;5.956;2023-07-28T09:16:52;3.05;;;2.05;;
39044;SDS011;52192;52.002;5.956;2023-07-28T09:19:19;6.32;;;3.45;;
39044;SDS011;52192;52.002;5.956;2023-07-28T09:21:45;8.32;;;3.15;;
39044;SDS011;52192;52.002;5.956;2023-07-28T09:24:35;5.95;;;2.97;;
39044;SDS011;52192;52.002;5.956;2023-07-28T09:27:01;6.25;;;2.67;;
39044;SDS011;52192;52.002;5.956;2023-07-28T09:29:27;3.17;;;2.63;;
39044;SDS011;52192;52.002;5.956;2023-07-28T09:31:53;3.05;;;1.80;;
39044;SDS011;52192;52.002;5.956;2023-07-28T09:34:28;2.28;;;1.67;;
39044;SDS011;52192;52.002;5.956;2023-07-28T09:36:54;4.03;;;2.30;;
39044;SDS011;52192;52.002;5.956;2023-07-28T09:39:20;6.43;;;3.58;;
39044;SDS011;52192;52.002;5.956;2023-07-28T09:41:46;5.28;;;3.38;;
39044;SDS011;52192;52.002;5.956;2023-07-28T09:44:13;4.97;;;2.55;;
39044;SDS011;52192;52.002;5.956;2023-07-28T09:46:57;5.18;;;2.78;;
39044;SDS011;52192;52.002;5.956;2023-07-28T09:49:32;8.82;;;3.33;;
39044;SDS011;52192;52.002;5.956;2023-07-28T09:52:05;5.03;;;3.00;;
39044;SDS011;52192;52.002;5.956;2023-07-28T09:54:34;5.63;;;2.00;;
39044;SDS011;52192;52.002;5.956;2023-07-28T09:57:08;3.33;;;2.47;;
39044;SDS011;52192;52.002;5.956;2023-07-28T09:59:39;4.05;;;2.42;;
39044;SDS011;52192;52.002;5.956;2023-07-28T10:02:06;5.22;;;2.97;;
39044;SDS011;52192;52.002;5.956;2023-07-28T10:04:33;4.72;;;2.95;;
39044;SDS011;52192;52.002;5.956;2023-07-28T10:07:00;4.38;;;2.65;;
39044;SDS011;52192;52.002;5.956;2023-07-28T10:09:29;6.20;;;3.30;;
39044;SDS011;52192;52.002;5.956;2023-07-28T10:11:58;4.55;;;2.47;;
39044;SDS011;52192;52.002;5.956;2023-07-28T10:14:25;4.28;;;2.25;;
39044;SDS011;52192;52.002;5.956;2023-07-28T10:16:52;4.68;;;3.03;;
39044;SDS011;52192;52.002;5.956;2023-07-28T10:19:21;5.05;;;2.60;;
39044;SDS011;52192;52.002;5.956;2023-07-28T10:22:06;4.78;;;2.55;;
39044;SDS011;52192;52.002;5.956;2023-07-28T10:30:15;3.10;;;2.00;;
39044;SDS011;52192;52.002;5.956;2023-07-28T10:32:42;4.55;;;2.78;;
39044;SDS011;52192;52.002;5.956;2023-07-28T10:35:21;3.30;;;1.75;;
39044;SDS011;52192;52.002;5.956;2023-07-28T10:37:48;4.88;;;2.45;;
39044;SDS011;52192;52.002;5.956;2023-07-28T10:42:52;2.78;;;1.95;;
39044;SDS011;52192;52.002;5.956;2023-07-28T10:45:19;4.63;;;2.00;;
39044;SDS011;52192;52.002;5.956;2023-07-28T10:47:45;4.97;;;2.70;;
39044;SDS011;52192;52.002;5.956;2023-07-28T10:50:14;5.20;;;3.00;;
39044;SDS011;52192;52.002;5.956;2023-07-28T10:52:40;5.15;;;2.47;;
39044;SDS011;52192;52.002;5.956;2023-07-28T10:57:40;4.13;;;2.25;;
39044;SDS011;52192;52.002;5.956;2023-07-28T11:00:10;3.90;;;2.55;;
39044;SDS011;52192;52.002;5.956;2023-07-28T11:02:44;3.92;;;1.73;;
39044;SDS011;52192;52.002;5.956;2023-07-28T11:05:11;3.22;;;2.28;;
39044;SDS011;52192;52.002;5.956;2023-07-28T11:07:47;3.70;;;1.92;;
39044;SDS011;52192;52.002;5.956;2023-07-28T11:10:13;4.40;;;2.42;;
39044;SDS011;52192;52.002;5.956;2023-07-28T11:12:43;6.00;;;3.33;;
39044;SDS011;52192;52.002;5.956;2023-07-28T11:15:09;3.88;;;2.42;;
39044;SDS011;52192;52.002;5.956;2023-07-28T11:17:38;4.28;;;2.30;;
39044;SDS011;52192;52.002;5.956;2023-07-28T11:20:14;4.40;;;2.65;;
39044;SDS011;52192;52.002;5.956;2023-07-28T11:22:45;3.85;;;2.60;;
39044;SDS011;52192;52.002;5.956;2023-07-28T11:25:12;5.15;;;2.88;;
39044;SDS011;52192;52.002;5.956;2023-07-28T11:27:38;3.28;;;2.15;;
39044;SDS011;52192;52.002;5.956;2023-07-28T11:30:05;3.25;;;2.50;;
39044;SDS011;52192;52.002;5.956;2023-07-28T11:32:35;2.70;;;1.95;;
39044;SDS011;52192;52.002;5.956;2023-07-28T11:37:32;3.60;;;2.50;;
39044;SDS011;52192;52.002;5.956;2023-07-28T11:39:59;3.30;;;2.15;;
39044;SDS011;52192;52.002;5.956;2023-07-28T11:42:29;4.95;;;2.20;;
39044;SDS011;52192;52.002;5.956;2023-07-28T11:44:56;3.65;;;2.65;;
39044;SDS011;52192;52.002;5.956;2023-07-28T11:47:23;4.25;;;2.47;;
39044;SDS011;52192;52.002;5.956;2023-07-28T11:49:49;3.33;;;2.05;;
39044;SDS011;52192;52.002;5.956;2023-07-28T11:52:16;3.67;;;2.20;;
39044;SDS011;52192;52.002;5.956;2023-07-28T11:54:43;4.25;;;3.08;;
39044;SDS011;52192;52.002;5.956;2023-07-28T11:57:09;5.07;;;2.78;;
39044;SDS011;52192;52.002;5.956;2023-07-28T11:59:35;3.92;;;3.03;;
39044;SDS011;52192;52.002;5.956;2023-07-28T12:02:02;4.05;;;2.75;;
39044;SDS011;52192;52.002;5.956;2023-07-28T12:04:36;4.95;;;2.30;;
39044;SDS011;52192;52.002;5.956;2023-07-28T12:07:10;2.97;;;2.22;;
39044;SDS011;52192;52.002;5.956;2023-07-28T12:12:17;4.13;;;1.92;;
39044;SDS011;52192;52.002;5.956;2023-07-28T12:14:44;3.25;;;2.00;;
39044;SDS011;52192;52.002;5.956;2023-07-28T12:17:17;7.40;;;3.65;;
39044;SDS011;52192;52.002;5.956;2023-07-28T12:22:26;3.80;;;2.13;;
39044;SDS011;52192;52.002;5.956;2023-07-28T12:24:53;4.15;;;2.50;;
39044;SDS011;52192;52.002;5.956;2023-07-28T12:27:19;2.88;;;2.00;;
39044;SDS011;52192;52.002;5.956;2023-07-28T12:29:48;2.90;;;2.40;;
39044;SDS011;52192;52.002;5.956;2023-07-28T12:32:18;2.05;;;1.60;;
39044;SDS011;52192;52.002;5.956;2023-07-28T12:34:44;4.00;;;2.75;;
39044;SDS011;52192;52.002;5.956;2023-07-28T12:37:10;2.33;;;1.75;;
39044;SDS011;52192;52.002;5.956;2023-07-28T12:39:36;3.38;;;2.08;;
39044;SDS011;52192;52.002;5.956;2023-07-28T12:42:06;2.28;;;1.85;;
39044;SDS011;52192;52.002;5.956;2023-07-28T12:44:32;3.08;;;2.03;;
39044;SDS011;52192;52.002;5.956;2023-07-28T12:46:58;3.30;;;1.55;;
39044;SDS011;52192;52.002;5.956;2023-07-28T12:49:24;3.95;;;2.03;;
39044;SDS011;52192;52.002;5.956;2023-07-28T12:51:50;2.05;;;1.40;;
39044;SDS011;52192;52.002;5.956;2023-07-28T12:54:16;2.58;;;1.73;;
39044;SDS011;52192;52.002;5.956;2023-07-28T12:56:42;3.92;;;2.45;;
39044;SDS011;52192;52.002;5.956;2023-07-28T12:59:07;2.58;;;1.80;;
39044;SDS011;52192;52.002;5.956;2023-07-28T13:01:35;2.42;;;2.17;;
39044;SDS011;52192;52.002;5.956;2023-07-28T13:04:02;2.67;;;1.90;;
39044;SDS011;52192;52.002;5.956;2023-07-28T13:06:28;3.28;;;1.80;;
39044;SDS011;52192;52.002;5.956;2023-07-28T13:08:53;2.90;;;2.17;;
39044;SDS011;52192;52.002;5.956;2023-07-28T13:11:19;3.42;;;1.65;;
39044;SDS011;52192;52.002;5.956;2023-07-28T13:13:45;3.03;;;1.80;;
39044;SDS011;52192;52.002;5.956;2023-07-28T13:16:11;3.47;;;2.15;;
39044;SDS011;52192;52.002;5.956;2023-07-28T13:18:36;1.83;;;1.15;;
39044;SDS011;52192;52.002;5.956;2023-07-28T13:21:02;2.50;;;1.48;;
39044;SDS011;52192;52.002;5.956;2023-07-28T13:23:28;1.58;;;1.17;;
39044;SDS011;52192;52.002;5.956;2023-07-28T13:25:54;2.92;;;2.05;;
39044;SDS011;52192;52.002;5.956;2023-07-28T13:28:19;1.60;;;1.45;;
39044;SDS011;52192;52.002;5.956;2023-07-28T13:30:45;2.08;;;1.33;;
39044;SDS011;52192;52.002;5.956;2023-07-28T13:33:11;2.33;;;1.45;;
39044;SDS011;52192;52.002;5.956;2023-07-28T13:35:36;2.40;;;1.60;;
39044;SDS011;52192;52.002;5.956;2023-07-28T13:38:02;1.92;;;1.55;;
39044;SDS011;52192;52.002;5.956;2023-07-28T13:40:28;2.70;;;1.60;;
39044;SDS011;52192;52.002;5.956;2023-07-28T13:42:53;2.08;;;1.30;;
39044;SDS011;52192;52.002;5.956;2023-07-28T13:45:19;1.88;;;1.17;;
39044;SDS011;52192;52.002;5.956;2023-07-28T13:47:45;1.27;;;1.10;;
39044;SDS011;52192;52.002;5.956;2023-07-28T13:50:10;0.93;;;0.80;;
39044;SDS011;52192;52.002;5.956;2023-07-28T13:52:39;1.70;;;1.05;;
39044;SDS011;52192;52.002;5.956;2023-07-28T13:55:05;1.20;;;1.00;;
39044;SDS011;52192;52.002;5.956;2023-07-28T13:57:31;1.52;;;1.10;;
39044;SDS011;52192;52.002;5.956;2023-07-28T13:59:57;2.00;;;1.23;;
39044;SDS011;52192;52.002;5.956;2023-07-28T14:02:23;1.52;;;1.20;;
39044;SDS011;52192;52.002;5.956;2023-07-28T14:04:48;2.17;;;1.38;;
39044;SDS011;52192;52.002;5.956;2023-07-28T14:07:14;2.10;;;1.20;;
39044;SDS011;52192;52.002;5.956;2023-07-28T14:09:40;1.73;;;1.50;;
39044;SDS011;52192;52.002;5.956;2023-07-28T14:12:06;1.90;;;1.13;;
39044;SDS011;52192;52.002;5.956;2023-07-28T14:14:32;1.40;;;1.08;;
39044;SDS011;52192;52.002;5.956;2023-07-28T14:16:57;2.03;;;1.25;;
39044;SDS011;52192;52.002;5.956;2023-07-28T14:19:23;1.90;;;1.10;;
39044;SDS011;52192;52.002;5.956;2023-07-28T14:21:49;0.90;;;0.90;;
39044;SDS011;52192;52.002;5.956;2023-07-28T14:24:14;1.98;;;1.30;;
39044;SDS011;52192;52.002;5.956;2023-07-28T14:26:40;1.58;;;1.35;;
39044;SDS011;52192;52.002;5.956;2023-07-28T14:29:06;1.60;;;1.48;;
39044;SDS011;52192;52.002;5.956;2023-07-28T14:31:31;1.40;;;1.17;;
39044;SDS011;52192;52.002;5.956;2023-07-28T14:33:57;1.17;;;0.75;;
39044;SDS011;52192;52.002;5.956;2023-07-28T14:36:23;1.98;;;1.40;;
39044;SDS011;52192;52.002;5.956;2023-07-28T14:38:48;1.45;;;1.30;;
39044;SDS011;52192;52.002;5.956;2023-07-28T14:41:14;1.80;;;1.70;;
39044;SDS011;52192;52.002;5.956;2023-07-28T14:43:40;1.13;;;0.85;;
39044;SDS011;52192;52.002;5.956;2023-07-28T14:46:05;1.55;;;1.40;;
39044;SDS011;52192;52.002;5.956;2023-07-28T14:48:31;2.22;;;1.00;;
39044;SDS011;52192;52.002;5.956;2023-07-28T14:50:57;1.00;;;0.90;;
39044;SDS011;52192;52.002;5.956;2023-07-28T14:53:29;2.03;;;1.40;;
39044;SDS011;52192;52.002;5.956;2023-07-28T14:56:00;2.28;;;1.58;;
39044;SDS011;52192;52.002;5.956;2023-07-28T14:58:26;1.52;;;1.05;;
39044;SDS011;52192;52.002;5.956;2023-07-28T15:00:53;1.88;;;1.30;;
39044;SDS011;52192;52.002;5.956;2023-07-28T15:03:19;1.35;;;1.15;;
39044;SDS011;52192;52.002;5.956;2023-07-28T15:05:45;0.93;;;0.90;;
39044;SDS011;52192;52.002;5.956;2023-07-28T15:08:10;1.30;;;1.10;;
39044;SDS011;52192;52.002;5.956;2023-07-28T15:10:36;1.38;;;1.27;;